sensor_id;sensor_type;location;lat;lon;timestamp;P1;durP1;ratioP1;P2;durP2;ratioP2
78889;SDS011;68279;48.964;14.502;2023-05-23T00:01:35;9.30;;;5.78;;
78889;SDS011;68279;48.964;14.502;2023-05-23T00:04:04;7.13;;;4.80;;
78889;SDS011;68279;48.964;14.502;2023-05-23T00:06:30;9.13;;;6.10;;
78889;SDS011;68279;48.964;14.502;2023-05-23T00:08:58;8.63;;;6.22;;
78889;SDS011;68279;48.964;14.502;2023-05-23T00:11:24;8.82;;;5.75;;
78889;SDS011;68279;48.964;14.502;2023-05-23T00:13:54;7.50;;;5.35;;
78889;SDS011;68279;48.964;14.502;2023-05-23T00:16:21;10.27;;;5.57;;
78889;SDS011;68279;48.964;14.502;2023-05-23T00:18:47;9.00;;;6.22;;
78889;SDS011;68279;48.964;14.502;2023-05-23T00:21:14;7.55;;;5.40;;
78889;SDS011;68279;48.964;14.502;2023-05-23T00:23:41;9.13;;;5.68;;
78889;SDS011;68279;48.964;14.502;2023-05-23T00:26:07;8.20;;;6.50;;
78889;SDS011;68279;48.964;14.502;2023-05-23T00:28:33;11.98;;;6.82;;
78889;SDS011;68279;48.964;14.502;2023-05-23T00:30:59;8.93;;;5.38;;
78889;SDS011;68279;48.964;14.502;2023-05-23T00:33:24;7.95;;;6.10;;
78889;SDS011;68279;48.964;14.502;2023-05-23T00:35:50;6.95;;;5.00;;
78889;SDS011;68279;48.964;14.502;2023-05-23T00:38:16;10.50;;;6.47;;
78889;SDS011;68279;48.964;14.502;2023-05-23T00:40:42;10.38;;;6.25;;
78889;SDS011;68279;48.964;14.502;2023-05-23T00:43:07;8.90;;;5.43;;
78889;SDS011;68279;48.964;14.502;2023-05-23T00:45:33;7.78;;;5.47;;
78889;SDS011;68279;48.964;14.502;2023-05-23T00:47:58;8.18;;;5.63;;
78889;SDS011;68279;48.964;14.502;2023-05-23T00:50:25;8.13;;;4.53;;
78889;SDS011;68279;48.964;14.502;2023-05-23T00:52:54;9.30;;;5.65;;
78889;SDS011;68279;48.964;14.502;2023-05-23T00:55:20;13.27;;;6.43;;
78889;SDS011;68279;48.964;14.502;2023-05-23T00:57:48;8.57;;;6.32;;
78889;SDS011;68279;48.964;14.502;2023-05-23T01:00:13;9.27;;;6.55;;
78889;SDS011;68279;48.964;14.502;2023-05-23T01:02:43;8.10;;;5.57;;
78889;SDS011;68279;48.964;14.502;2023-05-23T01:05:10;11.45;;;6.55;;
78889;SDS011;68279;48.964;14.502;2023-05-23T01:07:39;9.38;;;5.82;;
78889;SDS011;68279;48.964;14.502;2023-05-23T01:10:06;7.65;;;5.75;;
78889;SDS011;68279;48.964;14.502;2023-05-23T01:29:23;14.55;;;6.00;;
78889;SDS011;68279;48.964;14.502;2023-05-23T01:31:53;8.10;;;6.60;;
78889;SDS011;68279;48.964;14.502;2023-05-23T01:34:22;9.27;;;6.43;;
78889;SDS011;68279;48.964;14.502;2023-05-23T01:36:54;8.13;;;5.63;;
78889;SDS011;68279;48.964;14.502;2023-05-23T01:39:20;11.57;;;5.53;;
78889;SDS011;68279;48.964;14.502;2023-05-23T01:41:47;9.00;;;6.70;;
78889;SDS011;68279;48.964;14.502;2023-05-23T01:44:15;11.20;;;5.82;;
78889;SDS011;68279;48.964;14.502;2023-05-23T01:46:40;8.98;;;6.40;;
78889;SDS011;68279;48.964;14.502;2023-05-23T01:49:11;8.80;;;6.22;;
78889;SDS011;68279;48.964;14.502;2023-05-23T01:51:37;8.95;;;6.10;;
78889;SDS011;68279;48.964;14.502;2023-05-23T01:54:03;7.32;;;5.57;;
78889;SDS011;68279;48.964;14.502;2023-05-23T01:56:30;8.07;;;5.97;;
78889;SDS011;68279;48.964;14.502;2023-05-23T01:58:56;8.07;;;5.40;;
78889;SDS011;68279;48.964;14.502;2023-05-23T02:01:22;9.65;;;6.10;;
78889;SDS011;68279;48.964;14.502;2023-05-23T02:03:48;6.82;;;5.18;;
78889;SDS011;68279;48.964;14.502;2023-05-23T02:06:13;9.73;;;6.10;;
78889;SDS011;68279;48.964;14.502;2023-05-23T02:08:39;7.25;;;4.93;;
78889;SDS011;68279;48.964;14.502;2023-05-23T02:11:05;8.30;;;5.63;;
78889;SDS011;68279;48.964;14.502;2023-05-23T02:13:33;9.07;;;5.93;;
78889;SDS011;68279;48.964;14.502;2023-05-23T02:15:59;11.75;;;7.10;;
78889;SDS011;68279;48.964;14.502;2023-05-23T02:18:25;10.18;;;5.78;;
78889;SDS011;68279;48.964;14.502;2023-05-23T02:20:50;8.60;;;5.97;;
78889;SDS011;68279;48.964;14.502;2023-05-23T02:23:16;10.18;;;5.60;;
78889;SDS011;68279;48.964;14.502;2023-05-23T02:25:42;9.32;;;5.85;;
78889;SDS011;68279;48.964;14.502;2023-05-23T02:28:07;11.05;;;6.82;;
78889;SDS011;68279;48.964;14.502;2023-05-23T02:30:33;11.60;;;6.03;;
78889;SDS011;68279;48.964;14.502;2023-05-23T02:32:59;9.82;;;5.82;;
78889;SDS011;68279;48.964;14.502;2023-05-23T02:35:29;10.98;;;6.80;;
78889;SDS011;68279;48.964;14.502;2023-05-23T02:37:55;6.57;;;4.85;;
78889;SDS011;68279;48.964;14.502;2023-05-23T02:40:20;9.38;;;6.30;;
78889;SDS011;68279;48.964;14.502;2023-05-23T02:42:46;8.00;;;5.72;;
78889;SDS011;68279;48.964;14.502;2023-05-23T02:45:11;10.02;;;7.07;;
78889;SDS011;68279;48.964;14.502;2023-05-23T02:47:37;13.70;;;7.90;;
78889;SDS011;68279;48.964;14.502;2023-05-23T02:50:03;12.98;;;7.53;;
78889;SDS011;68279;48.964;14.502;2023-05-23T02:52:29;12.25;;;6.30;;
78889;SDS011;68279;48.964;14.502;2023-05-23T02:54:55;9.02;;;6.20;;
78889;SDS011;68279;48.964;14.502;2023-05-23T02:57:20;14.65;;;6.45;;
78889;SDS011;68279;48.964;14.502;2023-05-23T02:59:46;9.32;;;5.55;;
78889;SDS011;68279;48.964;14.502;2023-05-23T03:02:11;10.75;;;5.78;;
78889;SDS011;68279;48.964;14.502;2023-05-23T03:04:37;9.55;;;7.07;;
78889;SDS011;68279;48.964;14.502;2023-05-23T03:07:02;9.98;;;5.30;;
78889;SDS011;68279;48.964;14.502;2023-05-23T03:09:28;10.63;;;6.78;;
78889;SDS011;68279;48.964;14.502;2023-05-23T03:11:54;11.88;;;6.60;;
78889;SDS011;68279;48.964;14.502;2023-05-23T03:14:19;8.93;;;5.30;;
78889;SDS011;68279;48.964;14.502;2023-05-23T03:16:45;8.85;;;6.22;;
78889;SDS011;68279;48.964;14.502;2023-05-23T03:19:10;7.95;;;5.72;;
78889;SDS011;68279;48.964;14.502;2023-05-23T03:21:36;9.63;;;6.32;;
78889;SDS011;68279;48.964;14.502;2023-05-23T03:24:02;8.10;;;6.18;;
78889;SDS011;68279;48.964;14.502;2023-05-23T03:26:27;7.30;;;5.38;;
78889;SDS011;68279;48.964;14.502;2023-05-23T03:28:53;7.65;;;5.55;;
78889;SDS011;68279;48.964;14.502;2023-05-23T03:31:18;8.13;;;5.15;;
78889;SDS011;68279;48.964;14.502;2023-05-23T03:33:44;10.05;;;5.00;;
78889;SDS011;68279;48.964;14.502;2023-05-23T03:36:10;8.07;;;5.53;;
78889;SDS011;68279;48.964;14.502;2023-05-23T03:38:35;10.50;;;5.50;;
78889;SDS011;68279;48.964;14.502;2023-05-23T03:41:01;10.50;;;6.35;;
78889;SDS011;68279;48.964;14.502;2023-05-23T03:43:27;10.48;;;7.35;;
78889;SDS011;68279;48.964;14.502;2023-05-23T03:45:52;8.85;;;6.65;;
78889;SDS011;68279;48.964;14.502;2023-05-23T03:48:18;9.05;;;5.22;;
78889;SDS011;68279;48.964;14.502;2023-05-23T03:50:44;9.50;;;6.13;;
78889;SDS011;68279;48.964;14.502;2023-05-23T03:53:09;6.82;;;4.75;;
78889;SDS011;68279;48.964;14.502;2023-05-23T03:55:35;9.63;;;5.50;;
78889;SDS011;68279;48.964;14.502;2023-05-23T03:58:01;9.00;;;5.45;;
78889;SDS011;68279;48.964;14.502;2023-05-23T04:00:26;12.02;;;7.28;;
78889;SDS011;68279;48.964;14.502;2023-05-23T04:02:52;9.65;;;7.57;;
78889;SDS011;68279;48.964;14.502;2023-05-23T04:05:17;7.07;;;4.32;;
78889;SDS011;68279;48.964;14.502;2023-05-23T04:07:43;7.38;;;5.13;;
78889;SDS011;68279;48.964;14.502;2023-05-23T04:10:09;8.43;;;4.65;;
78889;SDS011;68279;48.964;14.502;2023-05-23T04:12:35;9.98;;;5.40;;
78889;SDS011;68279;48.964;14.502;2023-05-23T04:15:01;7.40;;;6.07;;
78889;SDS011;68279;48.964;14.502;2023-05-23T04:17:29;8.02;;;5.82;;
78889;SDS011;68279;48.964;14.502;2023-05-23T04:19:55;8.85;;;5.38;;
78889;SDS011;68279;48.964;14.502;2023-05-23T04:22:22;9.27;;;5.15;;
78889;SDS011;68279;48.964;14.502;2023-05-23T04:24:47;13.25;;;6.18;;
78889;SDS011;68279;48.964;14.502;2023-05-23T04:27:13;9.05;;;6.07;;
78889;SDS011;68279;48.964;14.502;2023-05-23T04:29:38;9.13;;;5.55;;
78889;SDS011;68279;48.964;14.502;2023-05-23T04:32:07;8.93;;;5.22;;
78889;SDS011;68279;48.964;14.502;2023-05-23T04:34:33;10.57;;;6.43;;
78889;SDS011;68279;48.964;14.502;2023-05-23T04:36:59;9.35;;;5.18;;
78889;SDS011;68279;48.964;14.502;2023-05-23T04:39:28;11.27;;;6.13;;
78889;SDS011;68279;48.964;14.502;2023-05-23T04:41:54;8.38;;;6.10;;
78889;SDS011;68279;48.964;14.502;2023-05-23T04:44:21;10.82;;;7.10;;
78889;SDS011;68279;48.964;14.502;2023-05-23T04:46:47;12.68;;;7.68;;
78889;SDS011;68279;48.964;14.502;2023-05-23T04:49:14;12.35;;;7.15;;
78889;SDS011;68279;48.964;14.502;2023-05-23T04:51:42;10.48;;;6.97;;
78889;SDS011;68279;48.964;14.502;2023-05-23T04:54:08;7.30;;;5.20;;
78889;SDS011;68279;48.964;14.502;2023-05-23T04:56:33;9.25;;;6.32;;
78889;SDS011;68279;48.964;14.502;2023-05-23T04:58:59;10.82;;;6.00;;
78889;SDS011;68279;48.964;14.502;2023-05-23T05:01:24;8.38;;;5.03;;
78889;SDS011;68279;48.964;14.502;2023-05-23T05:03:50;8.40;;;5.80;;
78889;SDS011;68279;48.964;14.502;2023-05-23T05:06:16;8.45;;;5.35;;
78889;SDS011;68279;48.964;14.502;2023-05-23T05:08:42;8.75;;;6.05;;
78889;SDS011;68279;48.964;14.502;2023-05-23T05:11:08;8.57;;;5.30;;
78889;SDS011;68279;48.964;14.502;2023-05-23T05:13:34;8.20;;;5.68;;
78889;SDS011;68279;48.964;14.502;2023-05-23T05:16:00;7.10;;;6.10;;
78889;SDS011;68279;48.964;14.502;2023-05-23T05:18:27;8.73;;;5.65;;
78889;SDS011;68279;48.964;14.502;2023-05-23T05:20:53;7.70;;;5.35;;
78889;SDS011;68279;48.964;14.502;2023-05-23T05:23:19;7.90;;;5.47;;
78889;SDS011;68279;48.964;14.502;2023-05-23T05:25:45;8.85;;;5.43;;
78889;SDS011;68279;48.964;14.502;2023-05-23T05:28:10;11.55;;;5.43;;
78889;SDS011;68279;48.964;14.502;2023-05-23T05:30:38;6.95;;;5.18;;
78889;SDS011;68279;48.964;14.502;2023-05-23T05:33:04;8.48;;;5.25;;
78889;SDS011;68279;48.964;14.502;2023-05-23T05:35:30;8.02;;;5.32;;
78889;SDS011;68279;48.964;14.502;2023-05-23T05:37:56;8.88;;;5.50;;
78889;SDS011;68279;48.964;14.502;2023-05-23T05:40:22;7.15;;;4.65;;
78889;SDS011;68279;48.964;14.502;2023-05-23T05:42:47;6.82;;;5.10;;
78889;SDS011;68279;48.964;14.502;2023-05-23T05:45:14;9.27;;;5.80;;
78889;SDS011;68279;48.964;14.502;2023-05-23T05:47:40;8.68;;;6.68;;
78889;SDS011;68279;48.964;14.502;2023-05-23T05:50:06;9.90;;;6.05;;
78889;SDS011;68279;48.964;14.502;2023-05-23T05:52:33;8.65;;;6.03;;
78889;SDS011;68279;48.964;14.502;2023-05-23T05:55:08;7.78;;;4.70;;
78889;SDS011;68279;48.964;14.502;2023-05-23T05:57:38;9.85;;;6.38;;
78889;SDS011;68279;48.964;14.502;2023-05-23T06:00:11;8.35;;;6.25;;
78889;SDS011;68279;48.964;14.502;2023-05-23T06:02:42;10.70;;;5.70;;
78889;SDS011;68279;48.964;14.502;2023-05-23T06:05:11;8.80;;;5.95;;
78889;SDS011;68279;48.964;14.502;2023-05-23T06:07:37;10.85;;;6.22;;
78889;SDS011;68279;48.964;14.502;2023-05-23T06:10:03;8.18;;;5.22;;
78889;SDS011;68279;48.964;14.502;2023-05-23T06:12:30;8.35;;;5.72;;
78889;SDS011;68279;48.964;14.502;2023-05-23T06:14:56;9.93;;;6.35;;
78889;SDS011;68279;48.964;14.502;2023-05-23T06:17:21;7.90;;;6.03;;
78889;SDS011;68279;48.964;14.502;2023-05-23T06:19:47;8.95;;;6.30;;
78889;SDS011;68279;48.964;14.502;2023-05-23T06:22:12;8.88;;;6.03;;
78889;SDS011;68279;48.964;14.502;2023-05-23T06:24:38;12.07;;;7.38;;
78889;SDS011;68279;48.964;14.502;2023-05-23T06:27:04;10.85;;;6.20;;
78889;SDS011;68279;48.964;14.502;2023-05-23T06:29:29;8.88;;;6.50;;
78889;SDS011;68279;48.964;14.502;2023-05-23T06:31:56;8.15;;;5.22;;
78889;SDS011;68279;48.964;14.502;2023-05-23T06:34:22;8.23;;;6.28;;
78889;SDS011;68279;48.964;14.502;2023-05-23T06:36:47;8.93;;;5.95;;
78889;SDS011;68279;48.964;14.502;2023-05-23T06:39:13;10.27;;;7.07;;
78889;SDS011;68279;48.964;14.502;2023-05-23T06:41:39;8.85;;;6.10;;
78889;SDS011;68279;48.964;14.502;2023-05-23T06:44:05;8.55;;;6.32;;
78889;SDS011;68279;48.964;14.502;2023-05-23T06:46:31;7.88;;;5.85;;
78889;SDS011;68279;48.964;14.502;2023-05-23T06:48:57;8.63;;;5.47;;
78889;SDS011;68279;48.964;14.502;2023-05-23T06:51:22;8.35;;;5.82;;
78889;SDS011;68279;48.964;14.502;2023-05-23T06:53:50;9.10;;;5.75;;
78889;SDS011;68279;48.964;14.502;2023-05-23T06:56:16;12.50;;;6.38;;
78889;SDS011;68279;48.964;14.502;2023-05-23T06:58:42;9.68;;;6.13;;
78889;SDS011;68279;48.964;14.502;2023-05-23T07:01:08;8.15;;;5.70;;
78889;SDS011;68279;48.964;14.502;2023-05-23T07:03:35;9.40;;;5.13;;
78889;SDS011;68279;48.964;14.502;2023-05-23T07:06:02;9.05;;;6.07;;
78889;SDS011;68279;48.964;14.502;2023-05-23T07:08:28;8.60;;;5.40;;
78889;SDS011;68279;48.964;14.502;2023-05-23T07:10:54;9.63;;;6.43;;
78889;SDS011;68279;48.964;14.502;2023-05-23T07:13:19;7.65;;;5.80;;
78889;SDS011;68279;48.964;14.502;2023-05-23T07:15:45;8.88;;;5.72;;
78889;SDS011;68279;48.964;14.502;2023-05-23T07:18:10;7.80;;;5.32;;
78889;SDS011;68279;48.964;14.502;2023-05-23T07:20:36;9.70;;;6.07;;
78889;SDS011;68279;48.964;14.502;2023-05-23T07:23:02;8.77;;;5.85;;
78889;SDS011;68279;48.964;14.502;2023-05-23T07:25:27;7.90;;;5.97;;
78889;SDS011;68279;48.964;14.502;2023-05-23T07:27:53;7.75;;;5.85;;
78889;SDS011;68279;48.964;14.502;2023-05-23T07:30:19;8.32;;;5.93;;
78889;SDS011;68279;48.964;14.502;2023-05-23T07:32:47;8.95;;;6.50;;
78889;SDS011;68279;48.964;14.502;2023-05-23T07:35:16;11.10;;;6.55;;
78889;SDS011;68279;48.964;14.502;2023-05-23T07:37:41;8.10;;;5.90;;
78889;SDS011;68279;48.964;14.502;2023-05-23T07:40:07;7.47;;;5.57;;
78889;SDS011;68279;48.964;14.502;2023-05-23T07:42:35;7.50;;;5.93;;
78889;SDS011;68279;48.964;14.502;2023-05-23T07:45:01;7.30;;;6.22;;
78889;SDS011;68279;48.964;14.502;2023-05-23T07:47:28;8.93;;;6.63;;
78889;SDS011;68279;48.964;14.502;2023-05-23T07:49:53;8.20;;;6.20;;
78889;SDS011;68279;48.964;14.502;2023-05-23T07:52:19;7.70;;;6.05;;
78889;SDS011;68279;48.964;14.502;2023-05-23T07:54:45;8.95;;;6.85;;
78889;SDS011;68279;48.964;14.502;2023-05-23T07:57:11;7.90;;;6.15;;
78889;SDS011;68279;48.964;14.502;2023-05-23T07:59:37;7.82;;;5.85;;
78889;SDS011;68279;48.964;14.502;2023-05-23T08:02:02;7.72;;;5.43;;
78889;SDS011;68279;48.964;14.502;2023-05-23T08:04:28;10.10;;;7.22;;
78889;SDS011;68279;48.964;14.502;2023-05-23T08:06:55;8.32;;;6.38;;
78889;SDS011;68279;48.964;14.502;2023-05-23T08:09:21;9.40;;;5.97;;
78889;SDS011;68279;48.964;14.502;2023-05-23T08:11:47;8.52;;;6.00;;
78889;SDS011;68279;48.964;14.502;2023-05-23T08:14:13;8.85;;;6.15;;
78889;SDS011;68279;48.964;14.502;2023-05-23T08:16:38;9.10;;;7.13;;
78889;SDS011;68279;48.964;14.502;2023-05-23T08:19:04;8.70;;;6.40;;
78889;SDS011;68279;48.964;14.502;2023-05-23T08:21:30;6.82;;;5.68;;
78889;SDS011;68279;48.964;14.502;2023-05-23T08:23:56;8.75;;;6.03;;
78889;SDS011;68279;48.964;14.502;2023-05-23T08:26:22;11.30;;;5.97;;
78889;SDS011;68279;48.964;14.502;2023-05-23T08:28:48;8.07;;;6.45;;
78889;SDS011;68279;48.964;14.502;2023-05-23T08:31:13;8.27;;;6.13;;
78889;SDS011;68279;48.964;14.502;2023-05-23T08:33:39;7.72;;;5.82;;
78889;SDS011;68279;48.964;14.502;2023-05-23T08:36:05;8.40;;;6.25;;
78889;SDS011;68279;48.964;14.502;2023-05-23T08:38:30;8.30;;;5.20;;
78889;SDS011;68279;48.964;14.502;2023-05-23T08:40:56;8.70;;;5.78;;
78889;SDS011;68279;48.964;14.502;2023-05-23T08:43:25;8.00;;;6.18;;
78889;SDS011;68279;48.964;14.502;2023-05-23T08:45:51;8.13;;;6.72;;
78889;SDS011;68279;48.964;14.502;2023-05-23T08:48:18;7.80;;;6.15;;
78889;SDS011;68279;48.964;14.502;2023-05-23T08:50:46;7.88;;;6.35;;
78889;SDS011;68279;48.964;14.502;2023-05-23T08:53:15;8.10;;;6.60;;
78889;SDS011;68279;48.964;14.502;2023-05-23T08:55:45;8.40;;;6.30;;
78889;SDS011;68279;48.964;14.502;2023-05-23T08:58:12;8.23;;;6.68;;
78889;SDS011;68279;48.964;14.502;2023-05-23T09:00:38;9.93;;;5.45;;
78889;SDS011;68279;48.964;14.502;2023-05-23T09:03:04;7.82;;;6.22;;
78889;SDS011;68279;48.964;14.502;2023-05-23T09:05:30;8.18;;;6.75;;
78889;SDS011;68279;48.964;14.502;2023-05-23T09:07:56;9.07;;;6.80;;
78889;SDS011;68279;48.964;14.502;2023-05-23T09:10:21;10.20;;;7.15;;
78889;SDS011;68279;48.964;14.502;2023-05-23T09:12:47;10.15;;;7.43;;
78889;SDS011;68279;48.964;14.502;2023-05-23T09:15:14;7.55;;;6.35;;
78889;SDS011;68279;48.964;14.502;2023-05-23T09:17:41;8.50;;;6.93;;
78889;SDS011;68279;48.964;14.502;2023-05-23T09:20:10;6.93;;;6.13;;
78889;SDS011;68279;48.964;14.502;2023-05-23T09:22:40;9.60;;;6.38;;
78889;SDS011;68279;48.964;14.502;2023-05-23T09:25:10;7.65;;;6.18;;
78889;SDS011;68279;48.964;14.502;2023-05-23T09:27:35;8.05;;;6.50;;
78889;SDS011;68279;48.964;14.502;2023-05-23T09:30:05;7.38;;;6.13;;
78889;SDS011;68279;48.964;14.502;2023-05-23T09:32:31;10.30;;;7.43;;
78889;SDS011;68279;48.964;14.502;2023-05-23T09:35:00;7.70;;;6.10;;
78889;SDS011;68279;48.964;14.502;2023-05-23T09:37:31;7.78;;;5.13;;
78889;SDS011;68279;48.964;14.502;2023-05-23T09:40:05;8.65;;;5.50;;
78889;SDS011;68279;48.964;14.502;2023-05-23T09:42:34;7.55;;;6.30;;
78889;SDS011;68279;48.964;14.502;2023-05-23T09:45:00;7.75;;;6.50;;
78889;SDS011;68279;48.964;14.502;2023-05-23T09:47:26;8.82;;;6.30;;
78889;SDS011;68279;48.964;14.502;2023-05-23T09:49:52;7.20;;;5.25;;
78889;SDS011;68279;48.964;14.502;2023-05-23T09:52:18;8.05;;;5.78;;
78889;SDS011;68279;48.964;14.502;2023-05-23T09:54:46;7.82;;;5.15;;
78889;SDS011;68279;48.964;14.502;2023-05-23T09:57:13;8.35;;;5.47;;
78889;SDS011;68279;48.964;14.502;2023-05-23T09:59:40;7.68;;;5.85;;
78889;SDS011;68279;48.964;14.502;2023-05-23T10:02:12;8.63;;;5.72;;
78889;SDS011;68279;48.964;14.502;2023-05-23T10:04:40;7.70;;;5.40;;
78889;SDS011;68279;48.964;14.502;2023-05-23T10:07:13;8.35;;;5.97;;
78889;SDS011;68279;48.964;14.502;2023-05-23T10:09:46;7.50;;;5.90;;
78889;SDS011;68279;48.964;14.502;2023-05-23T10:14:56;8.93;;;5.90;;
78889;SDS011;68279;48.964;14.502;2023-05-23T10:20:15;8.05;;;6.07;;
78889;SDS011;68279;48.964;14.502;2023-05-23T10:22:44;11.48;;;6.70;;
78889;SDS011;68279;48.964;14.502;2023-05-23T10:25:10;8.00;;;5.85;;
78889;SDS011;68279;48.964;14.502;2023-05-23T10:27:38;9.02;;;5.95;;
78889;SDS011;68279;48.964;14.502;2023-05-23T10:30:07;10.43;;;6.75;;
78889;SDS011;68279;48.964;14.502;2023-05-23T10:32:34;10.23;;;6.10;;
78889;SDS011;68279;48.964;14.502;2023-05-23T10:35:22;11.02;;;7.78;;
78889;SDS011;68279;48.964;14.502;2023-05-23T10:45:42;8.05;;;5.90;;
78889;SDS011;68279;48.964;14.502;2023-05-23T10:51:30;8.75;;;6.30;;
78889;SDS011;68279;48.964;14.502;2023-05-23T10:54:09;9.90;;;6.25;;
78889;SDS011;68279;48.964;14.502;2023-05-23T10:56:38;6.32;;;4.85;;
78889;SDS011;68279;48.964;14.502;2023-05-23T11:06:01;10.88;;;7.20;;
78889;SDS011;68279;48.964;14.502;2023-05-23T11:08:27;11.88;;;6.60;;
78889;SDS011;68279;48.964;14.502;2023-05-23T11:11:02;8.43;;;5.65;;
78889;SDS011;68279;48.964;14.502;2023-05-23T11:22:02;7.32;;;4.13;;
78889;SDS011;68279;48.964;14.502;2023-05-23T11:24:48;8.05;;;4.15;;
78889;SDS011;68279;48.964;14.502;2023-05-23T11:27:15;9.48;;;5.65;;
78889;SDS011;68279;48.964;14.502;2023-05-23T11:29:41;9.93;;;5.03;;
78889;SDS011;68279;48.964;14.502;2023-05-23T11:32:10;8.35;;;5.32;;
78889;SDS011;68279;48.964;14.502;2023-05-23T11:37:06;10.07;;;6.03;;
78889;SDS011;68279;48.964;14.502;2023-05-23T11:39:32;9.13;;;5.35;;
78889;SDS011;68279;48.964;14.502;2023-05-23T11:41:58;8.48;;;4.75;;
78889;SDS011;68279;48.964;14.502;2023-05-23T11:44:25;8.63;;;5.53;;
78889;SDS011;68279;48.964;14.502;2023-05-23T11:49:29;8.40;;;5.32;;
78889;SDS011;68279;48.964;14.502;2023-05-23T11:51:56;7.78;;;5.07;;
78889;SDS011;68279;48.964;14.502;2023-05-23T11:54:26;10.77;;;5.95;;
78889;SDS011;68279;48.964;14.502;2023-05-23T11:56:52;9.57;;;6.07;;
78889;SDS011;68279;48.964;14.502;2023-05-23T11:59:18;10.90;;;6.05;;
78889;SDS011;68279;48.964;14.502;2023-05-23T12:01:45;9.25;;;5.70;;
78889;SDS011;68279;48.964;14.502;2023-05-23T12:04:11;11.85;;;5.63;;
78889;SDS011;68279;48.964;14.502;2023-05-23T12:06:39;12.55;;;6.60;;
78889;SDS011;68279;48.964;14.502;2023-05-23T12:09:06;8.20;;;5.10;;
78889;SDS011;68279;48.964;14.502;2023-05-23T12:11:34;8.48;;;5.43;;
78889;SDS011;68279;48.964;14.502;2023-05-23T12:14:00;8.95;;;5.57;;
78889;SDS011;68279;48.964;14.502;2023-05-23T12:16:30;7.57;;;4.88;;
78889;SDS011;68279;48.964;14.502;2023-05-23T12:18:59;7.95;;;4.47;;
78889;SDS011;68279;48.964;14.502;2023-05-23T12:21:26;8.70;;;6.18;;
78889;SDS011;68279;48.964;14.502;2023-05-23T12:24:20;9.68;;;4.75;;
78889;SDS011;68279;48.964;14.502;2023-05-23T12:26:54;8.15;;;5.35;;
78889;SDS011;68279;48.964;14.502;2023-05-23T12:29:29;9.30;;;5.60;;
78889;SDS011;68279;48.964;14.502;2023-05-23T12:32:00;7.72;;;5.80;;
78889;SDS011;68279;48.964;14.502;2023-05-23T12:36:56;8.10;;;5.55;;
78889;SDS011;68279;48.964;14.502;2023-05-23T12:39:23;11.50;;;5.60;;
78889;SDS011;68279;48.964;14.502;2023-05-23T12:41:51;12.38;;;5.32;;
78889;SDS011;68279;48.964;14.502;2023-05-23T12:44:17;7.63;;;5.00;;
78889;SDS011;68279;48.964;14.502;2023-05-23T12:46:42;9.80;;;7.10;;
78889;SDS011;68279;48.964;14.502;2023-05-23T12:49:09;13.90;;;6.80;;
78889;SDS011;68279;48.964;14.502;2023-05-23T12:51:35;10.35;;;6.53;;
78889;SDS011;68279;48.964;14.502;2023-05-23T12:54:00;12.40;;;6.97;;
78889;SDS011;68279;48.964;14.502;2023-05-23T12:56:26;15.52;;;8.38;;
78889;SDS011;68279;48.964;14.502;2023-05-23T12:58:52;11.82;;;7.63;;
78889;SDS011;68279;48.964;14.502;2023-05-23T13:01:20;12.07;;;6.95;;
78889;SDS011;68279;48.964;14.502;2023-05-23T13:03:46;13.05;;;7.78;;
78889;SDS011;68279;48.964;14.502;2023-05-23T13:06:11;10.88;;;7.22;;
78889;SDS011;68279;48.964;14.502;2023-05-23T13:08:37;12.45;;;6.80;;
78889;SDS011;68279;48.964;14.502;2023-05-23T13:11:02;11.45;;;8.05;;
78889;SDS011;68279;48.964;14.502;2023-05-23T13:13:29;12.65;;;7.35;;
78889;SDS011;68279;48.964;14.502;2023-05-23T13:15:56;11.27;;;7.82;;
78889;SDS011;68279;48.964;14.502;2023-05-23T13:18:22;10.82;;;7.38;;
78889;SDS011;68279;48.964;14.502;2023-05-23T13:20:48;11.93;;;6.57;;
78889;SDS011;68279;48.964;14.502;2023-05-23T13:23:14;11.45;;;7.53;;
78889;SDS011;68279;48.964;14.502;2023-05-23T13:25:39;12.50;;;6.75;;
78889;SDS011;68279;48.964;14.502;2023-05-23T13:28:05;9.20;;;6.57;;
78889;SDS011;68279;48.964;14.502;2023-05-23T13:30:31;9.32;;;6.05;;
78889;SDS011;68279;48.964;14.502;2023-05-23T13:32:56;9.35;;;6.97;;
78889;SDS011;68279;48.964;14.502;2023-05-23T13:35:22;8.25;;;6.07;;
78889;SDS011;68279;48.964;14.502;2023-05-23T13:37:48;9.57;;;6.80;;
78889;SDS011;68279;48.964;14.502;2023-05-23T13:40:20;12.65;;;7.55;;
78889;SDS011;68279;48.964;14.502;2023-05-23T13:42:48;12.32;;;7.18;;
78889;SDS011;68279;48.964;14.502;2023-05-23T13:45:15;12.73;;;7.43;;
78889;SDS011;68279;48.964;14.502;2023-05-23T13:47:42;9.82;;;6.85;;
78889;SDS011;68279;48.964;14.502;2023-05-23T13:50:08;9.70;;;6.55;;
78889;SDS011;68279;48.964;14.502;2023-05-23T13:52:34;10.40;;;6.88;;
78889;SDS011;68279;48.964;14.502;2023-05-23T13:55:00;10.25;;;7.00;;
78889;SDS011;68279;48.964;14.502;2023-05-23T13:57:26;11.80;;;6.35;;
78889;SDS011;68279;48.964;14.502;2023-05-23T13:59:52;11.48;;;6.70;;
78889;SDS011;68279;48.964;14.502;2023-05-23T14:02:18;11.38;;;5.97;;
78889;SDS011;68279;48.964;14.502;2023-05-23T14:04:43;9.13;;;6.35;;
78889;SDS011;68279;48.964;14.502;2023-05-23T14:07:09;8.82;;;6.28;;
78889;SDS011;68279;48.964;14.502;2023-05-23T14:09:34;5.15;;;3.70;;
78889;SDS011;68279;48.964;14.502;2023-05-23T14:12:00;5.22;;;3.35;;
78889;SDS011;68279;48.964;14.502;2023-05-23T14:14:26;6.80;;;3.83;;
78889;SDS011;68279;48.964;14.502;2023-05-23T14:16:52;3.88;;;2.42;;
78889;SDS011;68279;48.964;14.502;2023-05-23T14:19:17;5.35;;;3.05;;
78889;SDS011;68279;48.964;14.502;2023-05-23T14:21:43;3.03;;;2.40;;
78889;SDS011;68279;48.964;14.502;2023-05-23T14:24:09;4.25;;;2.88;;
78889;SDS011;68279;48.964;14.502;2023-05-23T14:26:35;4.13;;;3.00;;
78889;SDS011;68279;48.964;14.502;2023-05-23T14:29:01;3.03;;;1.80;;
78889;SDS011;68279;48.964;14.502;2023-05-23T14:31:27;3.42;;;2.00;;
78889;SDS011;68279;48.964;14.502;2023-05-23T14:33:52;4.10;;;2.33;;
78889;SDS011;68279;48.964;14.502;2023-05-23T14:36:24;3.95;;;2.75;;
78889;SDS011;68279;48.964;14.502;2023-05-23T14:38:50;4.72;;;2.42;;
78889;SDS011;68279;48.964;14.502;2023-05-23T14:41:16;5.80;;;2.97;;
78889;SDS011;68279;48.964;14.502;2023-05-23T14:43:42;4.65;;;3.50;;
78889;SDS011;68279;48.964;14.502;2023-05-23T14:46:07;4.05;;;3.30;;
78889;SDS011;68279;48.964;14.502;2023-05-23T14:48:33;5.63;;;2.88;;
78889;SDS011;68279;48.964;14.502;2023-05-23T14:50:59;4.63;;;2.97;;
78889;SDS011;68279;48.964;14.502;2023-05-23T14:53:29;4.70;;;3.60;;
78889;SDS011;68279;48.964;14.502;2023-05-23T14:55:55;3.92;;;2.75;;
78889;SDS011;68279;48.964;14.502;2023-05-23T14:58:21;5.22;;;3.60;;
78889;SDS011;68279;48.964;14.502;2023-05-23T15:00:47;4.40;;;3.03;;
78889;SDS011;68279;48.964;14.502;2023-05-23T15:03:13;5.50;;;4.10;;
78889;SDS011;68279;48.964;14.502;2023-05-23T15:05:39;5.75;;;3.95;;
78889;SDS011;68279;48.964;14.502;2023-05-23T15:08:05;5.63;;;3.33;;
78889;SDS011;68279;48.964;14.502;2023-05-23T15:10:30;5.38;;;3.70;;
78889;SDS011;68279;48.964;14.502;2023-05-23T15:12:56;6.55;;;3.58;;
78889;SDS011;68279;48.964;14.502;2023-05-23T15:15:22;5.75;;;3.75;;
78889;SDS011;68279;48.964;14.502;2023-05-23T15:17:48;4.43;;;3.58;;
78889;SDS011;68279;48.964;14.502;2023-05-23T15:20:15;6.70;;;3.80;;
78889;SDS011;68279;48.964;14.502;2023-05-23T15:22:42;5.35;;;3.55;;
78889;SDS011;68279;48.964;14.502;2023-05-23T15:25:08;5.32;;;3.90;;